createdAt,value
2018-04-24T00:00:52.834Z,26.20
2018-04-24T00:03:21.380Z,26.20
2018-04-24T00:05:49.924Z,25.60
2018-04-24T00:08:17.720Z,25.50
2018-04-24T00:10:46.274Z,25.10
2018-04-24T00:13:14.055Z,25.10
2018-04-24T00:15:41.871Z,25.20
2018-04-24T00:18:10.461Z,24.70
2018-04-24T00:20:38.265Z,24.70
2018-04-24T00:23:06.046Z,24.80
2018-04-24T00:25:33.847Z,25.60
2018-04-24T00:28:02.467Z,24.70
2018-04-24T00:30:30.270Z,24.60
2018-04-24T00:32:58.052Z,23.80
2018-04-24T00:35:25.926Z,23.10
2018-04-24T00:37:54.505Z,22.90
2018-04-24T00:40:22.297Z,22.90
2018-04-24T00:42:50.079Z,23.60
2018-04-24T00:45:17.868Z,22.80
2018-04-24T00:47:45.645Z,22.70
2018-04-24T00:50:13.423Z,22.70
2018-04-24T00:52:41.244Z,23.60
2018-04-24T00:55:09.054Z,22.30
2018-04-24T00:57:37.629Z,23.00
2018-04-24T01:00:05.467Z,22.60
2018-04-24T01:02:33.271Z,23.70
2018-04-24T01:05:01.883Z,22.10
2018-04-24T01:07:29.661Z,22.60
2018-04-24T01:09:57.473Z,23.10
2018-04-24T01:12:25.253Z,22.30
2018-04-24T01:14:53.815Z,22.00
2018-04-24T01:17:21.604Z,22.00
2018-04-24T01:19:50.144Z,22.50
2018-04-24T01:22:18.013Z,22.40
2018-04-24T01:24:45.797Z,23.90
2018-04-24T01:27:13.592Z,22.20
2018-04-24T01:29:42.160Z,22.30
2018-04-24T01:32:10.718Z,22.40
2018-04-24T01:34:38.556Z,22.30
2018-04-24T01:37:06.325Z,23.20
2018-04-24T01:39:34.107Z,22.60
2018-04-24T01:42:02.650Z,22.80
2018-04-24T01:44:30.436Z,23.00
2018-04-24T01:46:58.231Z,23.00
2018-04-24T01:49:26.024Z,23.40
2018-04-24T01:51:54.571Z,23.20
2018-04-24T01:54:22.380Z,23.30
2018-04-24T01:56:50.198Z,26.50
2018-04-24T01:59:17.991Z,27.20
2018-04-24T02:01:46.529Z,30.00
2018-04-24T02:04:14.322Z,30.00
2018-04-24T02:06:42.107Z,34.60
2018-04-24T02:09:10.652Z,38.80
2018-04-24T02:11:38.425Z,38.80
2018-04-24T02:14:06.275Z,40.80
2018-04-24T02:16:34.092Z,42.10
2018-04-24T02:19:02.639Z,43.00
2018-04-24T02:21:30.435Z,43.00
2018-04-24T02:23:59.011Z,44.70
2018-04-24T02:26:27.597Z,45.40
2018-04-24T02:28:55.414Z,45.40
2018-04-24T02:31:23.200Z,45.90
2018-04-24T02:33:50.964Z,46.40
2018-04-24T02:36:18.739Z,46.70
2018-04-24T02:38:46.513Z,46.70
2018-04-24T02:41:15.072Z,46.20
2018-04-24T02:43:42.857Z,46.20
2018-04-24T02:46:10.651Z,47.00
2018-04-24T02:48:38.429Z,46.90
2018-04-24T02:51:06.218Z,46.10
2018-04-24T02:53:34.001Z,45.90
2018-04-24T02:56:01.776Z,46.20
2018-04-24T02:58:29.604Z,47.10
2018-04-24T03:00:57.393Z,48.80
2018-04-24T03:03:25.189Z,51.20
2018-04-24T03:05:53.798Z,54.80
2018-04-24T03:08:21.582Z,54.90
2018-04-24T03:10:49.368Z,55.40
2018-04-24T03:13:17.211Z,55.90
2018-04-24T03:15:44.986Z,56.20
2018-04-24T03:18:12.779Z,57.50
2018-04-24T03:20:40.563Z,57.70
2018-04-24T03:23:09.137Z,57.80
2018-04-24T03:25:37.688Z,57.70
2018-04-24T03:28:05.500Z,57.70
2018-04-24T03:30:33.296Z,56.70
2018-04-24T03:33:01.079Z,56.70
2018-04-24T03:35:28.895Z,57.50
2018-04-24T03:37:56.676Z,58.10
2018-04-24T03:40:24.463Z,58.20
2018-04-24T03:42:52.330Z,58.40
2018-04-24T03:45:20.959Z,57.70
2018-04-24T03:47:49.571Z,56.80
2018-04-24T03:50:17.364Z,56.80
2018-04-24T03:52:45.142Z,56.40
2018-04-24T03:55:12.907Z,55.60
2018-04-24T03:57:40.688Z,54.70
2018-04-24T04:00:08.494Z,53.90
2018-04-24T04:02:36.275Z,53.00
2018-04-24T04:05:04.096Z,52.20
2018-04-24T04:07:32.656Z,51.00
2018-04-24T04:10:01.224Z,50.60
2018-04-24T04:12:29.033Z,50.60
2018-04-24T04:14:57.599Z,50.30
2018-04-24T04:17:37.283Z,50.30
2018-04-24T04:20:16.876Z,52.70
2018-04-24T04:22:56.508Z,55.10
2018-04-24T04:25:24.392Z,56.50
2018-04-24T04:27:52.191Z,58.10
2018-04-24T04:30:19.976Z,59.00
2018-04-24T04:32:47.760Z,59.70
2018-04-24T04:35:15.543Z,60.00
2018-04-24T04:37:43.406Z,60.60
2018-04-24T04:40:11.192Z,61.00
2018-04-24T04:42:39.752Z,60.70
2018-04-24T04:45:07.538Z,60.70
2018-04-24T04:47:36.153Z,60.20
2018-04-24T04:50:03.989Z,60.20
2018-04-24T04:52:32.548Z,60.30
2018-04-24T04:55:00.324Z,60.20
2018-04-24T04:57:28.115Z,60.70
2018-04-24T04:59:55.937Z,60.90
2018-04-24T05:02:23.740Z,61.20
2018-04-24T05:04:52.275Z,61.20
2018-04-24T05:07:20.074Z,61.20
2018-04-24T05:09:48.614Z,60.70
2018-04-24T05:12:16.387Z,60.70
2018-04-24T05:14:44.188Z,60.60
2018-04-24T05:17:12.732Z,60.30
2018-04-24T05:19:40.531Z,60.20
2018-04-24T05:22:09.114Z,59.00
2018-04-24T05:24:37.696Z,59.10
2018-04-24T05:27:06.276Z,59.40
2018-04-24T05:29:34.828Z,59.70
2018-04-24T05:32:02.630Z,59.70
2018-04-24T05:34:31.174Z,60.50
2018-04-24T05:36:58.995Z,60.50
2018-04-24T05:39:26.776Z,60.50
2018-04-24T05:41:54.568Z,60.40
2018-04-24T05:44:22.344Z,61.10
2018-04-24T05:46:50.132Z,60.00
2018-04-24T05:49:18.680Z,59.40
2018-04-24T05:51:46.517Z,59.30
2018-04-24T05:54:14.340Z,59.20
2018-04-24T05:56:42.232Z,59.00
2018-04-24T05:59:10.007Z,58.90
2018-04-24T06:01:37.804Z,58.50
2018-04-24T06:04:05.606Z,58.00
2018-04-24T06:06:34.161Z,57.00
2018-04-24T06:09:01.951Z,57.00
2018-04-24T06:11:30.538Z,55.00
2018-04-24T06:13:59.101Z,54.20
2018-04-24T06:16:26.879Z,54.00
2018-04-24T06:18:55.488Z,51.70
2018-04-24T06:21:23.284Z,51.60
2018-04-24T06:23:51.080Z,49.20
2018-04-24T06:26:18.856Z,48.10
2018-04-24T06:28:47.434Z,45.90
2018-04-24T06:31:16.009Z,43.90
2018-04-24T06:33:43.789Z,43.80
2018-04-24T06:36:12.339Z,42.40
2018-04-24T06:38:40.136Z,41.80
2018-04-24T06:41:08.715Z,41.40
2018-04-24T06:43:36.483Z,41.30
2018-04-24T06:46:05.075Z,40.80
2018-04-24T06:48:33.660Z,40.90
2018-04-24T06:51:02.198Z,40.80
2018-04-24T06:53:29.997Z,40.80
2018-04-24T06:55:57.800Z,39.60
2018-04-24T06:58:26.444Z,40.50
2018-04-24T07:00:55.608Z,37.90
2018-04-24T07:03:23.584Z,37.80
2018-04-24T07:05:51.359Z,37.20
2018-04-24T07:08:19.136Z,36.20
2018-04-24T07:10:46.962Z,35.90
2018-04-24T07:13:14.731Z,33.20
2018-04-24T07:15:42.510Z,33.90
2018-04-24T07:18:10.351Z,31.50
2018-04-24T07:20:38.120Z,32.30
2018-04-24T07:23:05.895Z,33.70
2018-04-24T07:25:33.682Z,31.90
2018-04-24T07:28:01.488Z,31.50
2018-04-24T07:30:30.039Z,32.30
2018-04-24T07:32:58.682Z,31.10
2018-04-24T07:35:26.428Z,31.10
2018-04-24T07:37:54.201Z,30.70
2018-04-24T07:40:21.970Z,31.10
2018-04-24T07:42:49.752Z,30.10
2018-04-24T07:45:17.518Z,30.50
2018-04-24T07:47:45.294Z,30.10
2018-04-24T07:50:13.077Z,30.20
2018-04-24T07:52:41.614Z,30.70
2018-04-24T07:55:09.424Z,31.30
2018-04-24T07:57:37.962Z,29.60
2018-04-24T08:00:05.763Z,29.50
2018-04-24T08:02:34.304Z,29.60
2018-04-24T08:05:02.135Z,29.50
2018-04-24T08:07:29.911Z,30.80
2018-04-24T08:09:57.747Z,31.20
2018-04-24T08:12:25.537Z,29.80
2018-04-24T08:14:53.343Z,30.30
2018-04-24T08:17:21.117Z,31.10
2018-04-24T08:19:48.909Z,30.60
2018-04-24T08:22:17.461Z,31.70
2018-04-24T08:24:45.251Z,31.60
2018-04-24T08:27:13.818Z,30.70
2018-04-24T08:29:41.599Z,30.60
2018-04-24T08:32:10.140Z,31.80
2018-04-24T08:34:37.925Z,31.80
2018-04-24T08:37:05.698Z,31.60
2018-04-24T08:39:33.496Z,31.00
2018-04-24T08:42:01.269Z,31.40
2018-04-24T08:44:29.074Z,31.40
2018-04-24T08:46:56.852Z,31.50
2018-04-24T08:49:24.651Z,31.10
2018-04-24T08:51:52.440Z,30.00
2018-04-24T08:54:20.224Z,30.60
2018-04-24T08:56:48.026Z,30.10
2018-04-24T08:59:16.576Z,30.90
2018-04-24T09:01:44.355Z,30.90
2018-04-24T09:04:12.352Z,32.80
2018-04-24T09:06:40.903Z,31.70
2018-04-24T09:09:08.758Z,31.70
2018-04-24T09:11:36.557Z,32.70
2018-04-24T09:14:05.207Z,32.70
2018-04-24T09:16:32.996Z,32.70
2018-04-24T09:19:01.552Z,32.90
2018-04-24T09:21:29.396Z,32.80
2018-04-24T09:23:57.176Z,33.20
2018-04-24T09:26:25.064Z,33.30
2018-04-24T09:28:52.816Z,33.40
2018-04-24T09:31:20.659Z,33.40
2018-04-24T09:33:48.457Z,33.20
2018-04-24T09:36:16.251Z,33.50
2018-04-24T09:38:44.812Z,34.00
2018-04-24T09:41:12.592Z,34.00
2018-04-24T09:43:41.169Z,33.80
2018-04-24T09:46:09.747Z,34.20
2018-04-24T09:48:37.548Z,34.10
2018-04-24T09:51:05.333Z,33.40
2018-04-24T09:53:33.101Z,33.70
2018-04-24T09:56:00.867Z,33.60
2018-04-24T09:58:28.647Z,34.10
2018-04-24T10:00:56.489Z,34.90
2018-04-24T10:03:24.279Z,35.20
2018-04-24T10:05:52.126Z,35.40
2018-04-24T10:08:19.924Z,36.10
2018-04-24T10:10:47.720Z,36.00
2018-04-24T10:13:17.359Z,36.00
2018-04-24T10:15:45.171Z,36.10
2018-04-24T10:18:13.717Z,36.50
2018-04-24T10:20:41.534Z,36.40
2018-04-24T10:23:10.069Z,36.50
2018-04-24T10:25:37.844Z,36.40
2018-04-24T10:28:05.656Z,36.90
2018-04-24T10:30:33.450Z,36.60
2018-04-24T10:33:01.242Z,36.50
2018-04-24T10:35:29.095Z,36.60
2018-04-24T10:37:56.879Z,36.80
2018-04-24T10:40:24.677Z,36.20
2018-04-24T10:42:52.463Z,36.30
2018-04-24T10:45:20.239Z,36.50
2018-04-24T10:47:48.028Z,36.30
2018-04-24T10:50:15.805Z,36.10
2018-04-24T10:52:43.637Z,36.10
2018-04-24T10:55:11.448Z,36.00
2018-04-24T10:57:39.986Z,35.90
2018-04-24T11:00:08.806Z,35.90
2018-04-24T11:02:38.444Z,35.40
2018-04-24T11:05:06.224Z,35.50
2018-04-24T11:07:34.012Z,35.80
2018-04-24T11:10:01.820Z,36.30
2018-04-24T11:12:30.369Z,35.40
2018-04-24T11:14:58.196Z,35.30
2018-04-24T11:17:26.000Z,35.40
2018-04-24T11:19:53.792Z,35.50
2018-04-24T11:22:22.350Z,35.30
2018-04-24T11:24:50.143Z,35.30
2018-04-24T11:27:18.683Z,35.40
2018-04-24T11:29:47.279Z,34.90
2018-04-24T11:32:15.068Z,34.60
2018-04-24T11:34:43.629Z,36.00
2018-04-24T11:37:12.182Z,35.90
2018-04-24T11:39:39.958Z,36.00
2018-04-24T11:42:07.765Z,35.70
2018-04-24T11:44:36.323Z,37.10
2018-04-24T11:47:04.193Z,37.10
2018-04-24T11:49:32.755Z,35.60
2018-04-24T11:52:00.560Z,35.80
2018-04-24T11:54:28.367Z,35.30
2018-04-24T11:56:56.140Z,35.30
2018-04-24T11:59:23.931Z,35.70
2018-04-24T12:01:51.720Z,35.40
2018-04-24T12:04:20.270Z,34.20
2018-04-24T12:06:48.052Z,34.20
2018-04-24T12:09:15.835Z,35.20
2018-04-24T12:11:43.620Z,34.00
2018-04-24T12:14:11.421Z,33.60
2018-04-24T12:16:39.204Z,33.80
2018-04-24T12:19:06.979Z,33.60
2018-04-24T12:21:34.781Z,33.80
2018-04-24T12:24:02.588Z,33.80
2018-04-24T12:26:30.387Z,33.90
2018-04-24T12:29:01.672Z,33.20
2018-04-24T12:31:34.096Z,33.20
2018-04-24T12:34:02.015Z,33.80
2018-04-24T12:36:29.811Z,33.50
2018-04-24T12:38:57.608Z,33.50
2018-04-24T12:41:35.343Z,33.30
2018-04-24T12:44:03.236Z,33.20
2018-04-24T12:46:37.403Z,33.30
2018-04-24T12:49:05.488Z,32.50
2018-04-24T12:51:33.272Z,32.50
2018-04-24T12:54:01.088Z,32.70
2018-04-24T12:56:29.630Z,32.30
2018-04-24T12:58:57.428Z,32.30
2018-04-24T13:01:25.974Z,31.70
2018-04-24T13:03:54.608Z,31.30
2018-04-24T13:06:22.429Z,31.30
2018-04-24T13:08:50.213Z,31.90
2018-04-24T13:11:18.016Z,31.40
2018-04-24T13:13:45.846Z,31.50
2018-04-24T13:16:13.623Z,32.20
2018-04-24T13:18:42.183Z,31.20
2018-04-24T13:21:09.960Z,31.80
2018-04-24T13:23:37.765Z,30.90
2018-04-24T13:26:05.541Z,31.50
2018-04-24T13:28:33.343Z,31.50
2018-04-24T13:31:09.597Z,30.30
2018-04-24T13:33:37.676Z,30.60
2018-04-24T13:36:05.511Z,30.50
2018-04-24T13:38:33.295Z,30.90
2018-04-24T13:41:01.098Z,31.50
2018-04-24T13:43:29.657Z,30.00
2018-04-24T13:45:57.468Z,30.00
2018-04-24T13:48:25.305Z,30.50
2018-04-24T13:50:53.946Z,30.90
2018-04-24T13:53:21.738Z,30.90
2018-04-24T13:55:49.509Z,31.40
2018-04-24T13:58:17.276Z,31.70
2018-04-24T14:00:45.058Z,32.00
2018-04-24T14:03:13.628Z,31.70
2018-04-24T14:05:42.211Z,32.20
2018-04-24T14:08:10.036Z,31.60
2018-04-24T14:10:37.826Z,31.80
2018-04-24T14:13:05.606Z,31.60
2018-04-24T14:15:34.176Z,33.40
2018-04-24T14:18:01.971Z,33.00
2018-04-24T14:20:30.587Z,36.00
2018-04-24T14:22:58.470Z,36.10
2018-04-24T14:25:26.254Z,38.30
2018-04-24T14:27:54.033Z,39.00
2018-04-24T14:30:22.719Z,40.00
2018-04-24T14:32:51.820Z,40.00
2018-04-24T14:35:20.585Z,40.70
2018-04-24T14:37:48.368Z,40.60
2018-04-24T14:40:16.960Z,41.30
2018-04-24T14:42:45.556Z,42.00
2018-04-24T14:45:14.091Z,42.20
2018-04-24T14:47:41.878Z,42.20
2018-04-24T14:50:11.262Z,42.90
2018-04-24T14:52:40.827Z,43.10
2018-04-24T14:55:08.600Z,43.10
2018-04-24T14:57:36.381Z,43.10
2018-04-24T15:00:04.281Z,43.40
2018-04-24T15:02:32.820Z,44.10
2018-04-24T15:05:00.627Z,43.50
2018-04-24T15:07:29.175Z,43.50
2018-04-24T15:09:56.966Z,43.50
2018-04-24T15:12:24.755Z,43.20
2018-04-24T15:14:53.310Z,43.50
2018-04-24T15:17:21.148Z,43.50
2018-04-24T15:19:48.941Z,43.80
2018-04-24T15:22:17.681Z,43.80
2018-04-24T15:24:45.454Z,44.60
2018-04-24T15:27:13.243Z,44.70
2018-04-24T15:29:41.014Z,45.10
2018-04-24T15:32:08.814Z,45.50
2018-04-24T15:34:36.675Z,45.40
2018-04-24T15:37:04.496Z,45.00
2018-04-24T15:39:32.296Z,45.40
2018-04-24T15:42:00.924Z,45.40
2018-04-24T15:44:28.716Z,45.40
2018-04-24T19:40:49.650Z,60.40
2018-04-24T19:43:18.231Z,62.60
2018-04-24T19:45:46.783Z,62.50
2018-04-24T19:48:20.048Z,62.50
2018-04-24T19:50:48.627Z,62.50
2018-04-24T19:53:16.404Z,62.50
2018-04-24T19:55:45.005Z,61.10
2018-04-24T19:58:12.793Z,61.10
2018-04-24T20:00:40.620Z,60.70
2018-04-24T20:03:10.240Z,60.30
2018-04-24T20:05:38.035Z,60.30
2018-04-24T20:08:05.825Z,59.20
2018-04-24T20:10:33.645Z,59.80
2018-04-24T20:13:02.220Z,62.40
2018-04-24T20:15:30.315Z,62.30
2018-04-24T20:17:58.289Z,61.70
2018-04-24T20:20:26.125Z,61.00
2018-04-24T20:22:53.927Z,60.40
2018-04-24T20:25:22.493Z,59.60
2018-04-24T20:27:50.373Z,59.50
2018-04-24T20:30:19.045Z,59.30
2018-04-24T20:32:46.858Z,59.20
2018-04-24T20:35:14.673Z,58.70
2018-04-24T20:37:42.548Z,58.30
2018-04-24T20:40:10.396Z,58.10
2018-04-24T20:42:38.184Z,58.00
2018-04-24T20:45:06.752Z,57.70
2018-04-24T20:47:34.563Z,57.70
2018-04-24T20:50:02.335Z,57.40
2018-04-24T20:52:30.123Z,57.00
2018-04-24T20:54:57.914Z,57.10
2018-04-24T20:57:25.708Z,58.10
2018-04-24T20:59:54.327Z,59.90
2018-04-24T21:02:22.213Z,60.00
2018-04-24T21:04:50.004Z,61.70
2018-04-24T21:07:18.552Z,65.60
2018-04-24T21:09:46.392Z,65.40
2018-04-24T21:12:14.203Z,67.20
2018-04-24T21:14:41.994Z,68.50
2018-04-24T21:17:09.964Z,69.80
2018-04-24T21:19:38.618Z,70.70
2018-04-24T21:22:06.348Z,70.70
2018-04-24T21:24:34.120Z,69.70
2018-04-24T21:27:01.907Z,67.80
2018-04-24T21:29:29.776Z,65.90
2018-04-24T21:31:57.743Z,63.00
2018-04-24T21:34:26.299Z,65.70
2018-04-24T21:36:54.093Z,65.80
2018-04-24T21:39:21.872Z,65.30
2018-04-24T21:41:49.797Z,63.90
2018-04-24T21:44:17.589Z,60.50
2018-04-24T21:46:45.367Z,58.80
2018-04-24T21:49:13.913Z,56.20
2018-04-24T21:51:41.693Z,56.20
2018-04-24T21:54:09.468Z,55.20
2018-04-24T21:56:37.256Z,54.80
2018-04-24T21:59:05.829Z,53.40
2018-04-24T22:01:34.376Z,52.10
2018-04-24T22:04:02.188Z,52.10
2018-04-24T22:06:30.759Z,51.10
2018-04-24T22:08:59.296Z,50.00
2018-04-24T22:11:27.089Z,50.10
2018-04-24T22:13:54.898Z,50.10
2018-04-24T22:16:22.669Z,48.60
2018-04-24T22:18:50.445Z,47.70
2018-04-24T22:21:18.226Z,46.70
2018-04-24T22:23:46.005Z,46.30
2018-04-24T22:26:13.804Z,46.80
2018-04-24T22:28:42.374Z,46.80
2018-04-24T22:31:10.226Z,46.80
2018-04-24T22:33:38.189Z,46.50
2018-04-24T22:36:05.998Z,46.90
2018-04-24T22:38:33.768Z,46.60
2018-04-24T22:41:01.558Z,45.40
2018-04-24T23:24:47.924Z,40.40
2018-04-24T23:27:15.766Z,40.10
2018-04-24T23:29:44.329Z,40.10
2018-04-24T23:32:12.124Z,40.10
2018-04-24T23:34:40.691Z,40.80
2018-04-24T23:37:09.251Z,40.50
2018-04-24T23:39:37.116Z,40.50
2018-04-24T23:42:04.913Z,40.30
2018-04-24T23:44:33.499Z,41.00
2018-04-24T23:47:02.077Z,40.70
2018-04-24T23:49:30.636Z,41.20
2018-04-24T23:51:58.497Z,41.20
2018-04-24T23:54:26.304Z,41.10
2018-04-24T23:56:54.872Z,40.50
2018-04-24T23:59:23.480Z,40.60
